KRYW

Lago Vista Tx - Rusty Allen Airport

Lago Vista, Texas, USA
METAR KRYW 162155Z AUTO 00000KT 10SM CLR 16/07 A3025 RMK AO2 T01640068
Observed Flight Rules
Dec-16 @ 21:55 UTC (6 minutes ago) Visual Flight Rules
Visibility Clouds
10 miles
  • Clear skies
Temperatures Readings
Current 16°C / 61°F
Dewpoint 7°C / 45°F
Humidity 55%
Altimeter 30.25" Hg
Pressure 1024 hPa
Elevation 376
METAR KRYW 162155Z AUTO 00000KT 10SM CLR 16/07 A3025 RMK AO2 T01640068
Observed Flight Rules
Dec-16 @ 21:55 UTC
(6 minutes ago)
VFR
Clouds
  • Clear skies
Temperature Dewpoint
16°C / 61°F 7°C / 45°F
Humidity Altimeter Pressure
55% 30.25" Hg 1024 hPa